sensor_id;sensor_type;location;lat;lon;timestamp;P1;durP1;ratioP1;P2;durP2;ratioP2
58637;SDS011;54976;51.510;7.522;2023-07-24T00:01:01;7.50;;;2.55;;
58637;SDS011;54976;51.510;7.522;2023-07-24T00:04:02;3.65;;;2.60;;
58637;SDS011;54976;51.510;7.522;2023-07-24T00:07:03;3.33;;;2.33;;
58637;SDS011;54976;51.510;7.522;2023-07-24T00:10:03;5.78;;;2.38;;
58637;SDS011;54976;51.510;7.522;2023-07-24T00:13:04;5.18;;;2.60;;
58637;SDS011;54976;51.510;7.522;2023-07-24T00:16:08;3.92;;;2.50;;
58637;SDS011;54976;51.510;7.522;2023-07-24T00:19:09;3.83;;;2.60;;
58637;SDS011;54976;51.510;7.522;2023-07-24T00:22:09;3.47;;;2.38;;
58637;SDS011;54976;51.510;7.522;2023-07-24T00:25:10;3.15;;;2.72;;
58637;SDS011;54976;51.510;7.522;2023-07-24T00:28:10;3.00;;;2.35;;
58637;SDS011;54976;51.510;7.522;2023-07-24T00:31:11;5.95;;;2.70;;
58637;SDS011;54976;51.510;7.522;2023-07-24T00:34:12;3.03;;;2.45;;
58637;SDS011;54976;51.510;7.522;2023-07-24T00:37:13;3.28;;;2.65;;
58637;SDS011;54976;51.510;7.522;2023-07-24T00:40:13;4.22;;;2.90;;
58637;SDS011;54976;51.510;7.522;2023-07-24T00:43:14;6.80;;;2.95;;
58637;SDS011;54976;51.510;7.522;2023-07-24T00:46:14;4.57;;;2.90;;
58637;SDS011;54976;51.510;7.522;2023-07-24T00:49:15;6.72;;;3.22;;
58637;SDS011;54976;51.510;7.522;2023-07-24T00:52:16;7.50;;;2.78;;
58637;SDS011;54976;51.510;7.522;2023-07-24T00:55:17;4.95;;;2.97;;
58637;SDS011;54976;51.510;7.522;2023-07-24T00:58:18;7.13;;;3.25;;
58637;SDS011;54976;51.510;7.522;2023-07-24T01:01:19;5.43;;;2.92;;
58637;SDS011;54976;51.510;7.522;2023-07-24T01:04:20;4.45;;;2.85;;
58637;SDS011;54976;51.510;7.522;2023-07-24T01:07:22;5.60;;;2.90;;
58637;SDS011;54976;51.510;7.522;2023-07-24T01:10:22;6.68;;;3.25;;
58637;SDS011;54976;51.510;7.522;2023-07-24T01:13:24;2.72;;;2.40;;
58637;SDS011;54976;51.510;7.522;2023-07-24T01:16:31;3.95;;;2.70;;
58637;SDS011;54976;51.510;7.522;2023-07-24T01:22:39;4.40;;;3.10;;
58637;SDS011;54976;51.510;7.522;2023-07-24T01:25:55;4.30;;;2.78;;
58637;SDS011;54976;51.510;7.522;2023-07-24T01:29:00;3.83;;;2.38;;
58637;SDS011;54976;51.510;7.522;2023-07-24T01:32:00;5.28;;;2.67;;
58637;SDS011;54976;51.510;7.522;2023-07-24T01:35:01;3.03;;;2.72;;
58637;SDS011;54976;51.510;7.522;2023-07-24T01:38:02;4.45;;;1.95;;
58637;SDS011;54976;51.510;7.522;2023-07-24T01:41:03;3.08;;;2.33;;
58637;SDS011;54976;51.510;7.522;2023-07-24T01:44:05;3.67;;;3.00;;
58637;SDS011;54976;51.510;7.522;2023-07-24T01:47:05;6.90;;;2.72;;
58637;SDS011;54976;51.510;7.522;2023-07-24T01:50:06;4.15;;;2.60;;
58637;SDS011;54976;51.510;7.522;2023-07-24T01:53:07;3.40;;;2.53;;
58637;SDS011;54976;51.510;7.522;2023-07-24T01:56:08;3.95;;;2.97;;
58637;SDS011;54976;51.510;7.522;2023-07-24T01:59:08;8.40;;;2.58;;
58637;SDS011;54976;51.510;7.522;2023-07-24T02:02:09;4.45;;;2.80;;
58637;SDS011;54976;51.510;7.522;2023-07-24T02:05:10;5.55;;;2.85;;
58637;SDS011;54976;51.510;7.522;2023-07-24T02:08:11;4.10;;;3.15;;
58637;SDS011;54976;51.510;7.522;2023-07-24T02:11:12;5.70;;;3.03;;
58637;SDS011;54976;51.510;7.522;2023-07-24T02:14:13;4.55;;;2.95;;
58637;SDS011;54976;51.510;7.522;2023-07-24T02:17:14;3.97;;;2.88;;
58637;SDS011;54976;51.510;7.522;2023-07-24T02:20:15;4.47;;;2.80;;
58637;SDS011;54976;51.510;7.522;2023-07-24T02:23:16;5.13;;;3.05;;
58637;SDS011;54976;51.510;7.522;2023-07-24T02:26:16;7.25;;;3.63;;
58637;SDS011;54976;51.510;7.522;2023-07-24T02:29:17;6.47;;;3.38;;
58637;SDS011;54976;51.510;7.522;2023-07-24T02:32:17;6.53;;;3.10;;
58637;SDS011;54976;51.510;7.522;2023-07-24T02:35:21;4.53;;;3.08;;
58637;SDS011;54976;51.510;7.522;2023-07-24T02:38:22;5.53;;;3.10;;
58637;SDS011;54976;51.510;7.522;2023-07-24T02:41:22;4.40;;;3.00;;
58637;SDS011;54976;51.510;7.522;2023-07-24T02:44:23;5.25;;;3.60;;
58637;SDS011;54976;51.510;7.522;2023-07-24T02:47:23;6.88;;;3.50;;
58637;SDS011;54976;51.510;7.522;2023-07-24T02:50:24;10.23;;;3.72;;
58637;SDS011;54976;51.510;7.522;2023-07-24T02:53:24;6.07;;;3.25;;
58637;SDS011;54976;51.510;7.522;2023-07-24T02:56:25;4.13;;;3.60;;
58637;SDS011;54976;51.510;7.522;2023-07-24T02:59:26;6.20;;;3.72;;
58637;SDS011;54976;51.510;7.522;2023-07-24T03:02:26;9.15;;;3.70;;
58637;SDS011;54976;51.510;7.522;2023-07-24T03:05:27;7.68;;;3.47;;
58637;SDS011;54976;51.510;7.522;2023-07-24T03:08:27;4.22;;;3.22;;
58637;SDS011;54976;51.510;7.522;2023-07-24T03:11:28;5.55;;;3.78;;
58637;SDS011;54976;51.510;7.522;2023-07-24T03:14:28;8.45;;;3.47;;
58637;SDS011;54976;51.510;7.522;2023-07-24T03:17:29;11.50;;;4.07;;
58637;SDS011;54976;51.510;7.522;2023-07-24T03:20:29;5.53;;;3.70;;
58637;SDS011;54976;51.510;7.522;2023-07-24T03:23:30;6.15;;;3.55;;
58637;SDS011;54976;51.510;7.522;2023-07-24T03:26:30;7.38;;;4.00;;
58637;SDS011;54976;51.510;7.522;2023-07-24T03:29:31;5.93;;;3.50;;
58637;SDS011;54976;51.510;7.522;2023-07-24T03:32:32;6.80;;;3.72;;
58637;SDS011;54976;51.510;7.522;2023-07-24T03:35:32;6.45;;;4.25;;
58637;SDS011;54976;51.510;7.522;2023-07-24T03:38:33;8.23;;;4.35;;
58637;SDS011;54976;51.510;7.522;2023-07-24T03:41:34;9.85;;;4.32;;
58637;SDS011;54976;51.510;7.522;2023-07-24T03:44:35;7.22;;;4.45;;
58637;SDS011;54976;51.510;7.522;2023-07-24T03:47:36;8.52;;;4.18;;
58637;SDS011;54976;51.510;7.522;2023-07-24T03:50:36;7.72;;;4.68;;
58637;SDS011;54976;51.510;7.522;2023-07-24T03:53:37;7.00;;;4.40;;
58637;SDS011;54976;51.510;7.522;2023-07-24T03:56:37;9.18;;;3.88;;
58637;SDS011;54976;51.510;7.522;2023-07-24T03:59:38;8.00;;;4.03;;
58637;SDS011;54976;51.510;7.522;2023-07-24T04:02:38;7.07;;;4.20;;
58637;SDS011;54976;51.510;7.522;2023-07-24T04:05:39;7.72;;;4.35;;
58637;SDS011;54976;51.510;7.522;2023-07-24T04:08:40;9.73;;;4.32;;
58637;SDS011;54976;51.510;7.522;2023-07-24T04:11:41;7.43;;;4.40;;
58637;SDS011;54976;51.510;7.522;2023-07-24T04:14:42;8.52;;;4.45;;
58637;SDS011;54976;51.510;7.522;2023-07-24T04:17:43;5.93;;;3.70;;
58637;SDS011;54976;51.510;7.522;2023-07-24T04:20:43;11.05;;;3.80;;
58637;SDS011;54976;51.510;7.522;2023-07-24T04:23:44;10.82;;;4.40;;
58637;SDS011;54976;51.510;7.522;2023-07-24T04:26:45;5.80;;;3.92;;
58637;SDS011;54976;51.510;7.522;2023-07-24T04:29:46;9.20;;;4.32;;
58637;SDS011;54976;51.510;7.522;2023-07-24T04:32:46;6.70;;;3.70;;
58637;SDS011;54976;51.510;7.522;2023-07-24T04:35:47;10.05;;;4.50;;
58637;SDS011;54976;51.510;7.522;2023-07-24T04:38:49;12.13;;;4.25;;
58637;SDS011;54976;51.510;7.522;2023-07-24T04:41:49;6.53;;;4.22;;
58637;SDS011;54976;51.510;7.522;2023-07-24T04:44:50;8.43;;;3.88;;
58637;SDS011;54976;51.510;7.522;2023-07-24T04:47:51;10.00;;;4.32;;
58637;SDS011;54976;51.510;7.522;2023-07-24T04:50:55;8.85;;;4.53;;
58637;SDS011;54976;51.510;7.522;2023-07-24T04:53:56;5.85;;;3.65;;
58637;SDS011;54976;51.510;7.522;2023-07-24T04:56:57;7.30;;;3.90;;
58637;SDS011;54976;51.510;7.522;2023-07-24T04:59:57;8.57;;;4.28;;
58637;SDS011;54976;51.510;7.522;2023-07-24T05:02:58;7.20;;;3.88;;
58637;SDS011;54976;51.510;7.522;2023-07-24T05:05:58;10.73;;;3.53;;
58637;SDS011;54976;51.510;7.522;2023-07-24T05:08:59;6.60;;;3.67;;
58637;SDS011;54976;51.510;7.522;2023-07-24T05:11:59;5.63;;;3.85;;
58637;SDS011;54976;51.510;7.522;2023-07-24T05:15:00;10.48;;;3.60;;
58637;SDS011;54976;51.510;7.522;2023-07-24T05:18:01;9.40;;;4.00;;
58637;SDS011;54976;51.510;7.522;2023-07-24T05:21:01;6.32;;;3.65;;
58637;SDS011;54976;51.510;7.522;2023-07-24T05:24:02;7.32;;;4.07;;
58637;SDS011;54976;51.510;7.522;2023-07-24T05:27:06;8.45;;;4.53;;
58637;SDS011;54976;51.510;7.522;2023-07-24T05:30:06;10.57;;;4.67;;
58637;SDS011;54976;51.510;7.522;2023-07-24T05:33:07;9.82;;;4.32;;
58637;SDS011;54976;51.510;7.522;2023-07-24T05:36:08;9.48;;;3.97;;
58637;SDS011;54976;51.510;7.522;2023-07-24T05:39:08;8.40;;;4.20;;
58637;SDS011;54976;51.510;7.522;2023-07-24T05:42:09;6.90;;;4.18;;
58637;SDS011;54976;51.510;7.522;2023-07-24T05:45:10;9.80;;;4.07;;
58637;SDS011;54976;51.510;7.522;2023-07-24T05:48:17;7.60;;;4.30;;
58637;SDS011;54976;51.510;7.522;2023-07-24T05:51:17;6.53;;;4.15;;
58637;SDS011;54976;51.510;7.522;2023-07-24T05:54:18;10.52;;;4.38;;
58637;SDS011;54976;51.510;7.522;2023-07-24T05:57:19;11.95;;;4.60;;
58637;SDS011;54976;51.510;7.522;2023-07-24T06:00:19;8.32;;;4.47;;
58637;SDS011;54976;51.510;7.522;2023-07-24T06:03:20;6.68;;;4.30;;
58637;SDS011;54976;51.510;7.522;2023-07-24T06:06:24;11.00;;;4.70;;
58637;SDS011;54976;51.510;7.522;2023-07-24T06:09:24;12.73;;;4.70;;
58637;SDS011;54976;51.510;7.522;2023-07-24T06:12:25;7.88;;;4.60;;
58637;SDS011;54976;51.510;7.522;2023-07-24T06:15:26;9.02;;;4.22;;
58637;SDS011;54976;51.510;7.522;2023-07-24T06:18:26;9.10;;;4.13;;
58637;SDS011;54976;51.510;7.522;2023-07-24T06:21:27;8.40;;;4.20;;
58637;SDS011;54976;51.510;7.522;2023-07-24T06:24:27;5.65;;;3.38;;
58637;SDS011;54976;51.510;7.522;2023-07-24T06:27:28;8.90;;;4.18;;
58637;SDS011;54976;51.510;7.522;2023-07-24T06:30:28;6.50;;;4.05;;
58637;SDS011;54976;51.510;7.522;2023-07-24T06:33:29;5.82;;;3.88;;
58637;SDS011;54976;51.510;7.522;2023-07-24T06:36:30;10.98;;;3.67;;
58637;SDS011;54976;51.510;7.522;2023-07-24T06:39:30;8.88;;;4.18;;
58637;SDS011;54976;51.510;7.522;2023-07-24T06:42:33;8.18;;;3.83;;
58637;SDS011;54976;51.510;7.522;2023-07-24T06:45:34;6.90;;;4.03;;
58637;SDS011;54976;51.510;7.522;2023-07-24T06:48:34;6.25;;;4.05;;
58637;SDS011;54976;51.510;7.522;2023-07-24T06:51:35;9.38;;;4.50;;
58637;SDS011;54976;51.510;7.522;2023-07-24T06:54:36;6.57;;;4.65;;
58637;SDS011;54976;51.510;7.522;2023-07-24T06:57:36;10.55;;;4.53;;
58637;SDS011;54976;51.510;7.522;2023-07-24T07:00:37;7.30;;;4.40;;
58637;SDS011;54976;51.510;7.522;2023-07-24T07:03:37;10.50;;;4.25;;
58637;SDS011;54976;51.510;7.522;2023-07-24T07:06:38;6.75;;;4.78;;
58637;SDS011;54976;51.510;7.522;2023-07-24T07:09:39;7.63;;;4.07;;
58637;SDS011;54976;51.510;7.522;2023-07-24T07:12:39;5.70;;;4.30;;
58637;SDS011;54976;51.510;7.522;2023-07-24T07:15:40;6.75;;;3.83;;
58637;SDS011;54976;51.510;7.522;2023-07-24T07:18:40;8.07;;;4.07;;
58637;SDS011;54976;51.510;7.522;2023-07-24T07:21:41;4.13;;;3.60;;
58637;SDS011;54976;51.510;7.522;2023-07-24T07:24:42;4.85;;;3.17;;
58637;SDS011;54976;51.510;7.522;2023-07-24T07:27:43;4.70;;;3.00;;
58637;SDS011;54976;51.510;7.522;2023-07-24T07:30:44;6.75;;;3.53;;
58637;SDS011;54976;51.510;7.522;2023-07-24T07:33:45;7.47;;;3.70;;
58637;SDS011;54976;51.510;7.522;2023-07-24T07:36:45;7.25;;;4.15;;
58637;SDS011;54976;51.510;7.522;2023-07-24T07:39:46;5.38;;;3.80;;
58637;SDS011;54976;51.510;7.522;2023-07-24T07:42:47;8.10;;;4.07;;
58637;SDS011;54976;51.510;7.522;2023-07-24T07:45:47;4.25;;;3.03;;
58637;SDS011;54976;51.510;7.522;2023-07-24T07:48:48;4.88;;;3.63;;
58637;SDS011;54976;51.510;7.522;2023-07-24T07:51:49;5.10;;;3.50;;
58637;SDS011;54976;51.510;7.522;2023-07-24T07:54:49;5.05;;;3.60;;
58637;SDS011;54976;51.510;7.522;2023-07-24T07:57:50;6.28;;;3.60;;
58637;SDS011;54976;51.510;7.522;2023-07-24T08:00:50;9.63;;;4.32;;
58637;SDS011;54976;51.510;7.522;2023-07-24T08:03:51;4.47;;;3.78;;
58637;SDS011;54976;51.510;7.522;2023-07-24T08:06:52;7.07;;;3.80;;
58637;SDS011;54976;51.510;7.522;2023-07-24T08:09:52;7.65;;;4.22;;
58637;SDS011;54976;51.510;7.522;2023-07-24T08:12:53;6.63;;;3.75;;
58637;SDS011;54976;51.510;7.522;2023-07-24T08:15:54;7.07;;;3.60;;
58637;SDS011;54976;51.510;7.522;2023-07-24T08:18:54;6.18;;;3.45;;
58637;SDS011;54976;51.510;7.522;2023-07-24T08:21:55;5.80;;;4.30;;
58637;SDS011;54976;51.510;7.522;2023-07-24T08:24:56;5.35;;;3.60;;
58637;SDS011;54976;51.510;7.522;2023-07-24T08:27:56;5.97;;;3.33;;
58637;SDS011;54976;51.510;7.522;2023-07-24T08:30:57;4.38;;;3.42;;
58637;SDS011;54976;51.510;7.522;2023-07-24T08:33:59;5.53;;;3.15;;
58637;SDS011;54976;51.510;7.522;2023-07-24T08:36:59;7.03;;;3.10;;
58637;SDS011;54976;51.510;7.522;2023-07-24T08:40:00;5.57;;;3.25;;
58637;SDS011;54976;51.510;7.522;2023-07-24T08:43:01;5.65;;;3.50;;
58637;SDS011;54976;51.510;7.522;2023-07-24T08:46:02;7.13;;;3.05;;
58637;SDS011;54976;51.510;7.522;2023-07-24T08:49:03;3.92;;;2.90;;
58637;SDS011;54976;51.510;7.522;2023-07-24T08:52:04;6.03;;;2.78;;
58637;SDS011;54976;51.510;7.522;2023-07-24T08:55:06;3.28;;;2.65;;
58637;SDS011;54976;51.510;7.522;2023-07-24T08:58:07;4.03;;;2.90;;
58637;SDS011;54976;51.510;7.522;2023-07-24T09:01:09;6.03;;;3.30;;
58637;SDS011;54976;51.510;7.522;2023-07-24T09:04:09;6.10;;;3.00;;
58637;SDS011;54976;51.510;7.522;2023-07-24T09:07:10;4.68;;;2.90;;
58637;SDS011;54976;51.510;7.522;2023-07-24T09:10:11;6.68;;;2.75;;
58637;SDS011;54976;51.510;7.522;2023-07-24T09:13:14;7.47;;;2.58;;
58637;SDS011;54976;51.510;7.522;2023-07-24T09:16:21;3.97;;;2.40;;
58637;SDS011;54976;51.510;7.522;2023-07-24T09:19:25;4.55;;;2.83;;
58637;SDS011;54976;51.510;7.522;2023-07-24T09:22:26;6.35;;;2.33;;
58637;SDS011;54976;51.510;7.522;2023-07-24T09:25:30;4.30;;;2.45;;
58637;SDS011;54976;51.510;7.522;2023-07-24T09:28:31;4.28;;;2.10;;
58637;SDS011;54976;51.510;7.522;2023-07-24T09:31:35;2.10;;;1.90;;
58637;SDS011;54976;51.510;7.522;2023-07-24T09:34:41;3.83;;;2.30;;
58637;SDS011;54976;51.510;7.522;2023-07-24T09:37:42;2.80;;;2.38;;
58637;SDS011;54976;51.510;7.522;2023-07-24T09:40:44;3.97;;;2.25;;
58637;SDS011;54976;51.510;7.522;2023-07-24T09:43:45;3.45;;;2.30;;
58637;SDS011;54976;51.510;7.522;2023-07-24T09:46:46;3.95;;;1.83;;
58637;SDS011;54976;51.510;7.522;2023-07-24T09:49:47;3.22;;;1.98;;
58637;SDS011;54976;51.510;7.522;2023-07-24T09:52:48;3.10;;;1.90;;
58637;SDS011;54976;51.510;7.522;2023-07-24T09:56:00;3.90;;;2.17;;
58637;SDS011;54976;51.510;7.522;2023-07-24T09:59:03;4.63;;;2.20;;
58637;SDS011;54976;51.510;7.522;2023-07-24T10:02:06;2.38;;;2.10;;
58637;SDS011;54976;51.510;7.522;2023-07-24T10:05:11;2.95;;;2.00;;
58637;SDS011;54976;51.510;7.522;2023-07-24T10:08:12;4.65;;;2.40;;
58637;SDS011;54976;51.510;7.522;2023-07-24T10:11:14;2.88;;;2.20;;
58637;SDS011;54976;51.510;7.522;2023-07-24T10:14:15;2.40;;;2.20;;
58637;SDS011;54976;51.510;7.522;2023-07-24T10:17:24;4.22;;;2.60;;
58637;SDS011;54976;51.510;7.522;2023-07-24T10:20:40;4.82;;;2.60;;
58637;SDS011;54976;51.510;7.522;2023-07-24T10:26:43;3.53;;;2.40;;
58637;SDS011;54976;51.510;7.522;2023-07-24T10:29:44;3.08;;;2.33;;
58637;SDS011;54976;51.510;7.522;2023-07-24T10:32:47;6.90;;;2.78;;
58637;SDS011;54976;51.510;7.522;2023-07-24T10:35:53;4.78;;;3.10;;
58637;SDS011;54976;51.510;7.522;2023-07-24T10:38:55;4.18;;;2.83;;
58637;SDS011;54976;51.510;7.522;2023-07-24T10:42:04;4.40;;;3.03;;
58637;SDS011;54976;51.510;7.522;2023-07-24T10:45:06;6.53;;;3.03;;
58637;SDS011;54976;51.510;7.522;2023-07-24T10:48:08;4.68;;;3.15;;
58637;SDS011;54976;51.510;7.522;2023-07-24T10:51:11;5.23;;;3.33;;
58637;SDS011;54976;51.510;7.522;2023-07-24T10:54:20;5.20;;;3.60;;
58637;SDS011;54976;51.510;7.522;2023-07-24T10:57:27;6.90;;;3.38;;
58637;SDS011;54976;51.510;7.522;2023-07-24T11:00:31;5.03;;;3.35;;
58637;SDS011;54976;51.510;7.522;2023-07-24T11:03:32;3.92;;;3.20;;
58637;SDS011;54976;51.510;7.522;2023-07-24T11:06:35;6.07;;;3.20;;
58637;SDS011;54976;51.510;7.522;2023-07-24T11:09:36;4.18;;;2.97;;
58637;SDS011;54976;51.510;7.522;2023-07-24T11:12:40;6.13;;;3.45;;
58637;SDS011;54976;51.510;7.522;2023-07-24T11:15:40;6.97;;;3.20;;
58637;SDS011;54976;51.510;7.522;2023-07-24T11:18:47;4.90;;;3.10;;
58637;SDS011;54976;51.510;7.522;2023-07-24T11:21:49;3.72;;;2.92;;
58637;SDS011;54976;51.510;7.522;2023-07-24T11:24:49;5.20;;;3.10;;
58637;SDS011;54976;51.510;7.522;2023-07-24T11:27:50;4.72;;;3.13;;
58637;SDS011;54976;51.510;7.522;2023-07-24T11:30:50;5.90;;;3.17;;
58637;SDS011;54976;51.510;7.522;2023-07-24T11:33:51;5.30;;;3.50;;
58637;SDS011;54976;51.510;7.522;2023-07-24T11:36:52;5.78;;;3.15;;
58637;SDS011;54976;51.510;7.522;2023-07-24T11:40:00;5.22;;;3.88;;
58637;SDS011;54976;51.510;7.522;2023-07-24T11:43:14;4.75;;;3.85;;
58637;SDS011;54976;51.510;7.522;2023-07-24T11:46:27;5.20;;;3.88;;
58637;SDS011;54976;51.510;7.522;2023-07-24T11:49:29;6.57;;;4.35;;
58637;SDS011;54976;51.510;7.522;2023-07-24T11:52:41;4.40;;;4.00;;
58637;SDS011;54976;51.510;7.522;2023-07-24T11:55:44;4.97;;;4.05;;
58637;SDS011;54976;51.510;7.522;2023-07-24T11:58:44;4.70;;;4.10;;
58637;SDS011;54976;51.510;7.522;2023-07-24T12:01:48;7.00;;;4.10;;
58637;SDS011;54976;51.510;7.522;2023-07-24T12:04:53;7.20;;;4.03;;
58637;SDS011;54976;51.510;7.522;2023-07-24T12:07:56;4.15;;;3.20;;
58637;SDS011;54976;51.510;7.522;2023-07-24T12:10:58;5.57;;;4.00;;
58637;SDS011;54976;51.510;7.522;2023-07-24T12:13:58;4.97;;;3.60;;
58637;SDS011;54976;51.510;7.522;2023-07-24T12:17:02;10.48;;;4.68;;
58637;SDS011;54976;51.510;7.522;2023-07-24T12:20:06;9.15;;;5.75;;
58637;SDS011;54976;51.510;7.522;2023-07-24T12:23:09;8.27;;;5.00;;
58637;SDS011;54976;51.510;7.522;2023-07-24T12:26:09;11.40;;;4.97;;
58637;SDS011;54976;51.510;7.522;2023-07-24T12:29:10;11.20;;;4.95;;
58637;SDS011;54976;51.510;7.522;2023-07-24T12:32:11;9.10;;;5.60;;
58637;SDS011;54976;51.510;7.522;2023-07-24T12:35:11;12.18;;;5.97;;
58637;SDS011;54976;51.510;7.522;2023-07-24T12:38:12;10.05;;;4.00;;
58637;SDS011;54976;51.510;7.522;2023-07-24T12:41:12;6.20;;;3.45;;
58637;SDS011;54976;51.510;7.522;2023-07-24T12:44:13;3.47;;;3.15;;
58637;SDS011;54976;51.510;7.522;2023-07-24T12:47:14;3.67;;;2.80;;
58637;SDS011;54976;51.510;7.522;2023-07-24T12:50:14;6.63;;;2.80;;
58637;SDS011;54976;51.510;7.522;2023-07-24T12:53:15;4.28;;;2.85;;
58637;SDS011;54976;51.510;7.522;2023-07-24T12:56:15;9.25;;;2.60;;
58637;SDS011;54976;51.510;7.522;2023-07-24T12:59:19;5.78;;;2.53;;
58637;SDS011;54976;51.510;7.522;2023-07-24T13:02:20;6.83;;;2.40;;
58637;SDS011;54976;51.510;7.522;2023-07-24T13:05:20;3.85;;;1.45;;
58637;SDS011;54976;51.510;7.522;2023-07-24T13:08:21;2.38;;;1.10;;
58637;SDS011;54976;51.510;7.522;2023-07-24T13:11:23;2.72;;;1.35;;
58637;SDS011;54976;51.510;7.522;2023-07-24T13:14:23;3.83;;;0.90;;
58637;SDS011;54976;51.510;7.522;2023-07-24T13:17:24;4.95;;;0.90;;
58637;SDS011;54976;51.510;7.522;2023-07-24T13:20:25;4.57;;;1.20;;
58637;SDS011;54976;51.510;7.522;2023-07-24T13:23:25;1.90;;;0.70;;
58637;SDS011;54976;51.510;7.522;2023-07-24T13:26:26;2.17;;;0.85;;
58637;SDS011;54976;51.510;7.522;2023-07-24T13:29:27;1.60;;;0.95;;
58637;SDS011;54976;51.510;7.522;2023-07-24T13:32:27;1.00;;;0.80;;
58637;SDS011;54976;51.510;7.522;2023-07-24T13:35:29;0.93;;;0.73;;
58637;SDS011;54976;51.510;7.522;2023-07-24T13:38:30;2.67;;;1.00;;
58637;SDS011;54976;51.510;7.522;2023-07-24T13:41:32;1.90;;;1.00;;
58637;SDS011;54976;51.510;7.522;2023-07-24T13:44:33;4.95;;;1.17;;
58637;SDS011;54976;51.510;7.522;2023-07-24T13:47:33;1.60;;;0.90;;
58637;SDS011;54976;51.510;7.522;2023-07-24T13:50:34;3.63;;;1.30;;
58637;SDS011;54976;51.510;7.522;2023-07-24T13:53:34;3.83;;;1.10;;
58637;SDS011;54976;51.510;7.522;2023-07-24T13:56:35;1.85;;;1.25;;
58637;SDS011;54976;51.510;7.522;2023-07-24T13:59:36;2.00;;;1.10;;
58637;SDS011;54976;51.510;7.522;2023-07-24T14:05:40;5.18;;;1.90;;
58637;SDS011;54976;51.510;7.522;2023-07-24T14:08:40;2.97;;;1.95;;
58637;SDS011;54976;51.510;7.522;2023-07-24T14:11:41;5.90;;;1.92;;
58637;SDS011;54976;51.510;7.522;2023-07-24T14:14:42;3.55;;;1.70;;
58637;SDS011;54976;51.510;7.522;2023-07-24T14:17:42;4.40;;;1.50;;
58637;SDS011;54976;51.510;7.522;2023-07-24T14:20:43;4.70;;;1.48;;
58637;SDS011;54976;51.510;7.522;2023-07-24T14:23:43;1.80;;;1.50;;
58637;SDS011;54976;51.510;7.522;2023-07-24T14:26:44;4.88;;;1.55;;
58637;SDS011;54976;51.510;7.522;2023-07-24T14:29:45;1.90;;;1.40;;
58637;SDS011;54976;51.510;7.522;2023-07-24T14:32:45;3.22;;;1.27;;
58637;SDS011;54976;51.510;7.522;2023-07-24T14:35:46;1.95;;;1.30;;
58637;SDS011;54976;51.510;7.522;2023-07-24T14:38:47;1.58;;;1.20;;
58637;SDS011;54976;51.510;7.522;2023-07-24T14:41:47;1.92;;;1.27;;
58637;SDS011;54976;51.510;7.522;2023-07-24T14:44:48;1.60;;;1.50;;
58637;SDS011;54976;51.510;7.522;2023-07-24T14:47:48;4.22;;;1.55;;
58637;SDS011;54976;51.510;7.522;2023-07-24T14:50:49;5.88;;;2.17;;
58637;SDS011;54976;51.510;7.522;2023-07-24T14:53:50;2.78;;;2.05;;
58637;SDS011;54976;51.510;7.522;2023-07-24T14:56:50;2.85;;;1.80;;
58637;SDS011;54976;51.510;7.522;2023-07-24T14:59:51;2.85;;;2.10;;
58637;SDS011;54976;51.510;7.522;2023-07-24T15:02:53;2.80;;;2.40;;
58637;SDS011;54976;51.510;7.522;2023-07-24T15:05:54;7.07;;;2.40;;
58637;SDS011;54976;51.510;7.522;2023-07-24T15:08:56;2.45;;;1.70;;
58637;SDS011;54976;51.510;7.522;2023-07-24T15:11:57;2.95;;;1.88;;
58637;SDS011;54976;51.510;7.522;2023-07-24T15:14:58;3.03;;;2.20;;
58637;SDS011;54976;51.510;7.522;2023-07-24T15:17:59;2.60;;;1.85;;
58637;SDS011;54976;51.510;7.522;2023-07-24T15:21:00;2.90;;;1.80;;
58637;SDS011;54976;51.510;7.522;2023-07-24T15:24:01;5.15;;;2.28;;
58637;SDS011;54976;51.510;7.522;2023-07-24T15:27:02;2.63;;;1.70;;
58637;SDS011;54976;51.510;7.522;2023-07-24T15:30:08;1.85;;;1.70;;
58637;SDS011;54976;51.510;7.522;2023-07-24T15:33:10;4.00;;;2.35;;
58637;SDS011;54976;51.510;7.522;2023-07-24T15:36:10;3.42;;;2.60;;
58637;SDS011;54976;51.510;7.522;2023-07-24T15:39:11;5.32;;;3.30;;
58637;SDS011;54976;51.510;7.522;2023-07-24T15:42:12;3.97;;;3.55;;
58637;SDS011;54976;51.510;7.522;2023-07-24T15:45:12;4.35;;;2.90;;
58637;SDS011;54976;51.510;7.522;2023-07-24T15:48:13;6.10;;;3.10;;
58637;SDS011;54976;51.510;7.522;2023-07-24T15:51:14;2.83;;;2.25;;
58637;SDS011;54976;51.510;7.522;2023-07-24T15:54:14;2.65;;;2.30;;
58637;SDS011;54976;51.510;7.522;2023-07-24T15:57:15;3.00;;;2.13;;
58637;SDS011;54976;51.510;7.522;2023-07-24T16:00:16;5.55;;;2.47;;
58637;SDS011;54976;51.510;7.522;2023-07-24T16:03:16;3.70;;;2.20;;
58637;SDS011;54976;51.510;7.522;2023-07-24T16:06:17;2.10;;;1.90;;
58637;SDS011;54976;51.510;7.522;2023-07-24T16:09:18;1.98;;;1.77;;
58637;SDS011;54976;51.510;7.522;2023-07-24T16:12:18;3.38;;;1.92;;
58637;SDS011;54976;51.510;7.522;2023-07-24T16:15:19;2.70;;;1.88;;
58637;SDS011;54976;51.510;7.522;2023-07-24T16:18:22;2.25;;;1.60;;
58637;SDS011;54976;51.510;7.522;2023-07-24T16:21:23;3.70;;;2.22;;
58637;SDS011;54976;51.510;7.522;2023-07-24T16:24:26;3.33;;;2.00;;
58637;SDS011;54976;51.510;7.522;2023-07-24T16:27:27;2.63;;;2.13;;
58637;SDS011;54976;51.510;7.522;2023-07-24T16:30:28;2.50;;;2.30;;
58637;SDS011;54976;51.510;7.522;2023-07-24T16:33:28;3.40;;;2.25;;
58637;SDS011;54976;51.510;7.522;2023-07-24T16:36:29;4.82;;;3.05;;
58637;SDS011;54976;51.510;7.522;2023-07-24T16:39:35;5.47;;;2.45;;
58637;SDS011;54976;51.510;7.522;2023-07-24T16:42:36;4.30;;;2.80;;
58637;SDS011;54976;51.510;7.522;2023-07-24T16:45:36;3.50;;;2.47;;
58637;SDS011;54976;51.510;7.522;2023-07-24T16:48:37;4.43;;;2.83;;
58637;SDS011;54976;51.510;7.522;2023-07-24T16:51:38;4.22;;;3.25;;
58637;SDS011;54976;51.510;7.522;2023-07-24T16:54:38;3.25;;;2.83;;
58637;SDS011;54976;51.510;7.522;2023-07-24T16:57:39;4.57;;;3.00;;
58637;SDS011;54976;51.510;7.522;2023-07-24T17:00:39;3.28;;;2.70;;
58637;SDS011;54976;51.510;7.522;2023-07-24T17:03:40;9.65;;;3.17;;
58637;SDS011;54976;51.510;7.522;2023-07-24T17:06:40;5.05;;;3.58;;
58637;SDS011;54976;51.510;7.522;2023-07-24T17:09:42;5.43;;;3.53;;
58637;SDS011;54976;51.510;7.522;2023-07-24T17:12:43;8.93;;;4.53;;
58637;SDS011;54976;51.510;7.522;2023-07-24T17:15:45;6.68;;;4.10;;
58637;SDS011;54976;51.510;7.522;2023-07-24T17:18:45;8.65;;;4.07;;
58637;SDS011;54976;51.510;7.522;2023-07-24T17:21:47;8.60;;;3.85;;
58637;SDS011;54976;51.510;7.522;2023-07-24T17:24:48;5.88;;;4.32;;
58637;SDS011;54976;51.510;7.522;2023-07-24T17:27:49;6.85;;;4.47;;
58637;SDS011;54976;51.510;7.522;2023-07-24T17:30:49;7.82;;;6.10;;
58637;SDS011;54976;51.510;7.522;2023-07-24T17:33:50;7.80;;;5.70;;
58637;SDS011;54976;51.510;7.522;2023-07-24T17:36:51;9.18;;;4.93;;
58637;SDS011;54976;51.510;7.522;2023-07-24T17:39:52;9.93;;;5.20;;
58637;SDS011;54976;51.510;7.522;2023-07-24T17:42:52;7.82;;;5.35;;
58637;SDS011;54976;51.510;7.522;2023-07-24T17:45:53;5.07;;;4.57;;
58637;SDS011;54976;51.510;7.522;2023-07-24T17:48:54;6.70;;;4.95;;
58637;SDS011;54976;51.510;7.522;2023-07-24T17:51:55;6.53;;;5.15;;
58637;SDS011;54976;51.510;7.522;2023-07-24T17:54:56;6.60;;;4.68;;
58637;SDS011;54976;51.510;7.522;2023-07-24T17:57:56;6.82;;;4.10;;
58637;SDS011;54976;51.510;7.522;2023-07-24T18:00:57;6.20;;;3.50;;
58637;SDS011;54976;51.510;7.522;2023-07-24T18:03:57;9.90;;;3.80;;
58637;SDS011;54976;51.510;7.522;2023-07-24T18:06:58;5.72;;;3.60;;
58637;SDS011;54976;51.510;7.522;2023-07-24T18:09:59;7.65;;;3.75;;
58637;SDS011;54976;51.510;7.522;2023-07-24T18:13:00;5.72;;;3.47;;
58637;SDS011;54976;51.510;7.522;2023-07-24T18:16:00;5.40;;;3.90;;
58637;SDS011;54976;51.510;7.522;2023-07-24T18:19:01;7.88;;;3.67;;
58637;SDS011;54976;51.510;7.522;2023-07-24T18:22:03;7.25;;;4.10;;